Time;durP1;ratioP1;P1;durP2;ratioP2;P2;SDS_P1;SDS_P2;PMS_P1;PMS_P2;Temp;Humidity;BMP_temperature;BMP_pressure;BME280_temperature;BME280_humidity;BME280_pressure;Samples;Min_cycle;Max_cycle;Signal;HPM_P1;HPM_P2
2022/01/09 00:00:09;;;;;;;162.05;85.82;;;;;;;2.90;100.00;100524.19;5073914;28;20054;-81
2022/01/09 00:02:35;;;;;;;332.23;95.80;;;;;;;2.77;100.00;100526.47;5077000;28;20499;-81
2022/01/09 00:05:02;;;;;;;174.30;83.80;;;;;;;2.86;100.00;100524.69;5083819;28;20458;-81
2022/01/09 00:07:29;;;;;;;208.93;90.95;;;;;;;2.84;100.00;100519.59;5082090;28;20461;-82
2022/01/09 00:09:57;;;;;;;171.73;88.82;;;;;;;2.99;100.00;100522.41;5078087;28;20049;-82
2022/01/09 00:12:24;;;;;;;177.88;88.13;;;;;;;3.07;100.00;100524.25;5085403;28;20052;-82
2022/01/09 00:14:50;;;;;;;196.57;103.20;;;;;;;2.91;100.00;100528.47;5082904;28;20531;-81
2022/01/09 00:17:18;;;;;;;160.65;90.97;;;;;;;2.98;100.00;100516.34;5074319;28;20435;-83
2022/01/09 00:19:45;;;;;;;170.15;82.53;;;;;;;3.16;100.00;100526.72;5080889;28;20117;-81
2022/01/09 00:22:12;;;;;;;157.63;89.13;;;;;;;3.15;100.00;100524.25;5076661;28;20074;-82
2022/01/09 00:24:39;;;;;;;148.05;87.07;;;;;;;3.18;100.00;100527.38;5081502;28;20052;-81
2022/01/09 00:27:07;;;;;;;150.45;85.72;;;;;;;3.24;100.00;100525.06;5083655;28;20049;-81
2022/01/09 00:29:34;;;;;;;153.75;87.88;;;;;;;3.11;100.00;100523.75;5089665;28;20040;-82
2022/01/09 00:32:00;;;;;;;163.05;87.30;;;;;;;3.12;100.00;100522.78;5079530;28;20049;-81
2022/01/09 00:34:27;;;;;;;158.23;80.93;;;;;;;3.19;100.00;100521.13;5071118;28;20454;-82
2022/01/09 00:36:54;;;;;;;159.77;83.80;;;;;;;3.13;100.00;100521.78;5079647;28;20048;-82
2022/01/09 00:39:21;;;;;;;183.98;87.97;;;;;;;3.16;100.00;100515.41;5083688;28;20063;-82
2022/01/09 00:41:48;;;;;;;211.50;106.68;;;;;;;3.23;100.00;100508.50;5076277;28;20465;-80
2022/01/09 00:44:17;;;;;;;202.80;97.20;;;;;;;3.07;100.00;100511.94;5087083;28;20040;-81
2022/01/09 00:46:44;;;;;;;170.45;96.70;;;;;;;3.05;100.00;100507.81;5084992;28;20423;-81
2022/01/09 00:49:10;;;;;;;186.77;101.75;;;;;;;3.03;100.00;100502.75;5087416;28;20121;-82
2022/01/09 00:51:37;;;;;;;172.25;92.28;;;;;;;3.07;100.00;100505.88;5087782;28;20450;-82
2022/01/09 00:54:04;;;;;;;175.32;95.53;;;;;;;3.01;100.00;100494.22;5085863;28;20068;-82
2022/01/09 00:56:31;;;;;;;153.35;84.88;;;;;;;3.08;100.00;100497.00;5084622;28;20060;-83
2022/01/09 00:58:58;;;;;;;156.63;80.55;;;;;;;3.07;100.00;100492.75;5081461;28;20045;-81
2022/01/09 01:01:26;;;;;;;145.70;78.15;;;;;;;3.07;100.00;100490.94;5086491;28;20045;-83
2022/01/09 01:03:53;;;;;;;134.27;74.57;;;;;;;3.09;100.00;100482.91;5087165;28;20060;-82
2022/01/09 01:06:19;;;;;;;141.35;74.25;;;;;;;3.25;100.00;100482.09;5083024;28;20052;-82
2022/01/09 01:08:46;;;;;;;167.25;88.43;;;;;;;3.27;100.00;100475.72;5074780;28;20056;-81
2022/01/09 01:11:13;;;;;;;163.07;91.25;;;;;;;3.27;100.00;100475.72;5070870;28;20044;-81
2022/01/09 01:13:40;;;;;;;150.98;81.55;;;;;;;3.30;100.00;100480.63;5075975;28;20139;-82
2022/01/09 01:16:07;;;;;;;159.23;81.57;;;;;;;3.11;100.00;100478.31;5080175;28;20049;-82
2022/01/09 01:18:35;;;;;;;150.70;83.88;;;;;;;3.20;100.00;100479.94;5086269;28;20043;-81
2022/01/09 01:21:02;;;;;;;158.30;81.43;;;;;;;3.11;100.00;100475.69;5089708;28;20484;-81
2022/01/09 01:23:28;;;;;;;159.23;77.28;;;;;;;3.03;100.00;100470.44;5082029;28;20496;-82
2022/01/09 01:26:00;;;;;;;162.80;77.50;;;;;;;3.07;100.00;100469.13;5086294;28;20048;-83
2022/01/09 01:28:27;;;;;;;189.68;81.45;;;;;;;2.90;100.00;100460.41;5081402;28;20053;-83
2022/01/09 01:30:54;;;;;;;164.43;77.50;;;;;;;3.02;100.00;100464.34;5084020;28;20472;-82
2022/01/09 01:33:21;;;;;;;143.32;76.30;;;;;;;3.10;100.00;100463.56;5084462;28;20117;-82
2022/01/09 01:35:50;;;;;;;146.20;72.30;;;;;;;2.97;100.00;100450.94;5064154;28;20101;-81
2022/01/09 01:38:17;;;;;;;141.90;76.47;;;;;;;3.11;100.00;100459.94;5082412;28;20048;-81
2022/01/09 01:40:44;;;;;;;147.63;69.88;;;;;;;3.17;100.00;100440.91;5067645;28;20060;-82
2022/01/09 01:43:12;;;;;;;141.02;71.60;;;;;;;3.15;100.00;100437.66;5084092;28;20048;-82
2022/01/09 01:45:38;;;;;;;284.83;125.32;;;;;;;3.10;100.00;100429.44;5086055;28;20097;-81
2022/01/09 01:48:06;;;;;;;293.77;123.72;;;;;;;3.08;100.00;100432.22;5088003;28;20048;-82
2022/01/09 01:50:37;;;;;;;377.50;142.38;;;;;;;3.18;100.00;100429.44;5070519;28;20085;-82
2022/01/09 01:53:07;;;;;;;221.30;94.18;;;;;;;3.16;100.00;100428.78;5078536;28;20048;-81
2022/01/09 01:55:37;;;;;;;160.65;76.38;;;;;;;3.21;100.00;100410.75;5082476;28;20079;-82
2022/01/09 01:58:04;;;;;;;155.82;85.32;;;;;;;3.27;100.00;100412.72;5084020;28;20044;-82
2022/01/09 02:00:31;;;;;;;211.30;92.70;;;;;;;3.22;100.00;100410.56;5081711;28;20106;-81
2022/01/09 02:02:58;;;;;;;182.07;78.88;;;;;;;3.24;100.00;100396.44;5080440;28;20078;-81
2022/01/09 02:05:27;;;;;;;159.82;72.47;;;;;;;3.20;100.00;100390.72;5090512;28;21517;-81
2022/01/09 02:07:56;;;;;;;157.82;74.95;;;;;;;3.19;100.00;100383.84;5084845;28;20048;-81
2022/01/09 02:10:25;;;;;;;163.85;74.53;;;;;;;3.18;100.00;100388.28;5079257;28;20109;-82
2022/01/09 02:12:56;;;;;;;280.52;121.90;;;;;;;3.18;100.00;100385.66;5081039;28;20049;-82
2022/01/09 02:15:34;;;;;;;218.13;101.00;;;;;;;3.16;100.00;100374.47;5087659;28;20059;-83
2022/01/09 02:18:02;;;;;;;160.80;81.57;;;;;;;3.18;100.00;100379.59;5079582;28;20469;-82
2022/01/09 02:20:31;;;;;;;157.95;79.57;;;;;;;3.18;100.00;100367.28;5075593;28;20048;-81
2022/01/09 02:22:58;;;;;;;242.07;72.75;;;;;;;3.12;100.00;100360.06;5084378;28;20122;-83
2022/01/09 02:25:26;;;;;;;145.73;67.57;;;;;;;3.17;100.00;100357.75;5082133;28;20053;-83
2022/01/09 02:27:53;;;;;;;140.82;64.78;;;;;;;3.19;100.00;100350.53;5085799;28;20143;-82
2022/01/09 02:30:19;;;;;;;199.70;70.53;;;;;;;3.08;100.00;100352.69;5080418;28;20457;-82
2022/01/09 02:32:46;;;;;;;170.85;66.28;;;;;;;2.99;100.00;100344.00;5070718;28;20462;-81
2022/01/09 02:35:13;;;;;;;146.35;71.47;;;;;;;3.06;100.00;100350.22;5072035;28;20185;-82
2022/01/09 02:37:42;;;;;;;159.80;66.53;;;;;;;3.01;100.00;100349.91;5079263;28;20052;-81
2022/01/09 02:40:09;;;;;;;136.55;69.15;;;;;;;3.19;100.00;100349.72;5072371;28;20540;-82
2022/01/09 02:42:36;;;;;;;134.57;70.18;;;;;;;3.13;100.00;100343.31;5077723;28;20055;-82
2022/01/09 02:45:04;;;;;;;141.20;72.38;;;;;;;3.22;100.00;100337.06;5077239;28;20056;-81
2022/01/09 02:47:33;;;;;;;144.05;80.43;;;;;;;3.33;100.00;100329.81;5085575;28;20048;-82
2022/01/09 02:50:08;;;;;;;140.80;79.20;;;;;;;3.30;100.00;100324.91;5086838;28;20048;-82
2022/01/09 02:52:47;;;;;;;174.65;84.93;;;;;;;3.31;100.00;100323.94;5076896;28;20370;-81
2022/01/09 02:55:16;;;;;;;145.82;83.60;;;;;;;3.41;100.00;100321.94;5077016;28;20561;-82
2022/01/09 02:57:43;;;;;;;139.45;84.53;;;;;;;3.32;100.00;100320.31;5082554;28;20109;-82
2022/01/09 03:02:47;;;;;;;149.75;73.85;;;;;;;3.05;100.00;100324.97;5039736;23;20498;-81
2022/01/09 03:05:14;;;;;;;141.40;78.25;;;;;;;3.00;100.00;100318.59;5005660;28;20119;-81
2022/01/09 03:07:42;;;;;;;134.50;69.03;;;;;;;3.14;100.00;100325.78;5000384;28;20042;-81
2022/01/09 03:10:11;;;;;;;132.70;67.28;;;;;;;3.07;100.00;100327.44;5000312;28;20050;-83
2022/01/09 03:12:40;;;;;;;129.10;68.88;;;;;;;3.20;100.00;100333.78;5009795;28;20548;-81
2022/01/09 03:15:08;;;;;;;143.70;77.50;;;;;;;3.25;100.00;100322.81;5006517;28;20050;-82
2022/01/09 03:17:35;;;;;;;125.47;65.90;;;;;;;3.25;100.00;100322.00;5002415;28;20054;-82
2022/01/09 03:20:04;;;;;;;149.85;78.07;;;;;;;3.22;100.00;100323.94;4998404;28;20047;-82
2022/01/09 03:22:31;;;;;;;137.68;69.82;;;;;;;3.08;100.00;100324.63;5004108;28;20054;-81
2022/01/09 03:24:58;;;;;;;138.77;70.97;;;;;;;3.17;100.00;100309.69;5005733;28;20058;-81
2022/01/09 03:27:25;;;;;;;140.48;79.13;;;;;;;3.24;100.00;100310.69;5001933;28;20058;-84
2022/01/09 03:29:53;;;;;;;130.07;77.40;;;;;;;3.28;100.00;100316.41;5005011;28;20530;-81
2022/01/09 03:32:20;;;;;;;154.55;82.25;;;;;;;3.19;100.00;100307.72;5003520;28;20061;-82
2022/01/09 03:34:46;;;;;;;207.02;81.30;;;;;;;3.17;100.00;100307.88;5009216;28;20490;-84
2022/01/09 03:37:13;;;;;;;200.10;87.25;;;;;;;3.13;100.00;100306.59;5005498;28;20113;-82
2022/01/09 03:39:40;;;;;;;146.93;74.65;;;;;;;3.19;100.00;100310.34;5007820;28;20050;-80
2022/01/09 03:42:07;;;;;;;194.93;81.50;;;;;;;3.17;100.00;100307.06;5009954;28;20050;-82
2022/01/09 03:44:34;;;;;;;143.57;76.90;;;;;;;3.14;100.00;100302.16;5013845;28;20053;-81
2022/01/09 03:47:02;;;;;;;120.78;70.00;;;;;;;3.22;100.00;100296.88;5011921;28;20438;-82
2022/01/09 03:49:30;;;;;;;117.13;64.55;;;;;;;3.05;100.00;100298.72;5005013;28;20061;-81
2022/01/09 03:51:58;;;;;;;120.63;70.68;;;;;;;3.09;100.00;100313.16;5007033;28;20046;-82
2022/01/09 03:54:24;;;;;;;109.60;66.47;;;;;;;3.12;100.00;100306.78;5004891;28;20054;-84
2022/01/09 03:56:51;;;;;;;119.15;63.95;;;;;;;3.08;100.00;100319.38;5004505;28;20046;-82
2022/01/09 03:59:19;;;;;;;111.43;63.80;;;;;;;3.07;100.00;100314.31;5007796;28;20045;-83
2022/01/09 04:01:47;;;;;;;116.90;66.35;;;;;;;3.00;100.00;100310.72;5004286;28;20450;-82
2022/01/09 04:04:15;;;;;;;116.60;63.67;;;;;;;3.07;100.00;100311.69;5012951;28;20397;-83
2022/01/09 04:06:46;;;;;;;108.97;66.95;;;;;;;3.00;100.00;100306.28;5011118;28;20058;-82
2022/01/09 04:09:19;;;;;;;104.82;65.68;;;;;;;3.06;100.00;100305.63;5009646;28;20466;-84
2022/01/09 04:11:46;;;;;;;104.82;65.72;;;;;;;3.05;100.00;100308.41;5004854;28;20049;-81
2022/01/09 04:14:13;;;;;;;97.03;64.53;;;;;;;3.06;100.00;100300.38;5012334;28;20421;-83
2022/01/09 04:16:40;;;;;;;112.72;65.65;;;;;;;3.09;100.00;100301.84;5013990;28;20047;-83
2022/01/09 04:19:12;;;;;;;99.28;60.90;;;;;;;3.14;100.00;100308.22;5008403;28;20058;-81
2022/01/09 04:21:41;;;;;;;106.55;54.83;;;;;;;3.08;100.00;100314.13;5015199;28;20052;-82
2022/01/09 04:24:08;;;;;;;112.85;61.33;;;;;;;3.11;100.00;100311.16;5007036;28;20468;-82
2022/01/09 04:26:34;;;;;;;128.02;63.55;;;;;;;3.06;100.00;100317.94;5004255;28;20055;-81
2022/01/09 04:29:01;;;;;;;119.03;61.10;;;;;;;2.96;100.00;100323.31;5012978;28;20053;-81
2022/01/09 04:31:28;;;;;;;121.03;63.42;;;;;;;3.01;100.00;100326.28;5011820;28;20541;-81
2022/01/09 04:33:55;;;;;;;122.57;71.53;;;;;;;2.92;100.00;100325.47;5013265;28;20108;-81
2022/01/09 04:36:22;;;;;;;115.03;73.20;;;;;;;3.07;100.00;100322.19;5014151;28;20529;-82
2022/01/09 04:38:52;;;;;;;114.95;64.88;;;;;;;2.97;100.00;100319.75;5010685;28;20051;-81
2022/01/09 04:41:19;;;;;;;105.65;65.97;;;;;;;2.88;100.00;100326.78;5003842;28;20534;-82
2022/01/09 04:43:47;;;;;;;116.40;69.57;;;;;;;2.94;100.00;100333.19;5009085;28;20466;-82
2022/01/09 04:46:20;;;;;;;111.05;64.75;;;;;;;2.96;100.00;100326.78;5011890;28;20084;-81
2022/01/09 04:48:49;;;;;;;116.10;67.57;;;;;;;2.93;100.00;100331.53;5015335;28;20395;-81
2022/01/09 04:51:15;;;;;;;106.97;57.10;;;;;;;2.75;100.00;100342.19;5010228;28;20061;-82
2022/01/09 04:53:42;;;;;;;115.97;58.70;;;;;;;2.75;100.00;100337.78;5008830;28;20041;-80
2022/01/09 04:56:10;;;;;;;117.57;59.33;;;;;;;2.70;100.00;100340.06;5000075;28;20120;-82
2022/01/09 04:58:37;;;;;;;125.38;60.42;;;;;;;2.76;100.00;100335.97;5010622;28;20093;-82
2022/01/09 05:01:04;;;;;;;108.07;60.70;;;;;;;2.75;100.00;100339.56;5007563;28;20046;-82
2022/01/09 05:03:31;;;;;;;118.63;62.28;;;;;;;2.93;100.00;100336.78;5006947;28;20474;-81
2022/01/09 05:05:57;;;;;;;110.22;64.88;;;;;;;2.79;100.00;100333.03;5012507;28;20061;-82
2022/01/09 05:08:24;;;;;;;112.50;60.05;;;;;;;2.81;100.00;100328.41;5005836;28;20181;-81
2022/01/09 05:10:51;;;;;;;119.75;60.70;;;;;;;2.79;100.00;100338.28;5005105;28;20131;-81
2022/01/09 05:13:19;;;;;;;114.88;64.78;;;;;;;2.81;100.00;100341.53;5012873;28;20050;-82
2022/01/09 05:15:46;;;;;;;112.18;74.10;;;;;;;2.77;100.00;100347.28;5011892;28;20046;-81
2022/01/09 05:18:14;;;;;;;125.45;65.90;;;;;;;2.69;100.00;100353.34;5009912;28;20445;-82
2022/01/09 05:20:42;;;;;;;111.13;60.90;;;;;;;2.88;100.00;100342.53;4998173;28;20546;-81
2022/01/09 05:23:09;;;;;;;123.68;68.10;;;;;;;2.78;100.00;100338.44;5005905;28;20054;-82
2022/01/09 05:25:36;;;;;;;115.35;63.70;;;;;;;2.88;100.00;100341.72;5000460;28;20050;-81
2022/01/09 05:28:04;;;;;;;118.80;59.63;;;;;;;2.82;100.00;100342.38;5004536;28;20529;-81
2022/01/09 05:30:32;;;;;;;120.32;67.78;;;;;;;2.93;100.00;100342.84;5007399;28;20057;-81
2022/01/09 05:32:59;;;;;;;129.07;70.25;;;;;;;2.87;100.00;100342.69;5011257;28;20532;-82
2022/01/09 05:35:26;;;;;;;117.03;63.15;;;;;;;2.78;100.00;100335.81;5013948;28;20497;-81
2022/01/09 05:37:52;;;;;;;106.95;57.55;;;;;;;2.69;100.00;100327.97;5004744;28;20058;-81
2022/01/09 05:40:20;;;;;;;114.90;59.78;;;;;;;2.65;100.00;100325.81;5006726;28;20057;-82
2022/01/09 05:42:46;;;;;;;113.00;64.60;;;;;;;2.78;100.00;100323.50;5007288;28;20141;-82
2022/01/09 05:45:16;;;;;;;116.90;56.35;;;;;;;2.70;100.00;100315.66;5010915;28;20477;-83
2022/01/09 05:47:45;;;;;;;107.90;57.13;;;;;;;2.66;100.00;100307.31;5011409;28;20042;-83
2022/01/09 05:50:12;;;;;;;106.90;57.40;;;;;;;2.82;100.00;100316.97;5014308;28;20073;-82
2022/01/09 05:52:38;;;;;;;99.65;56.90;;;;;;;2.68;100.00;100317.63;5014024;28;20441;-81
2022/01/09 05:55:06;;;;;;;113.18;58.17;;;;;;;2.67;100.00;100314.19;5011637;28;20131;-81
2022/01/09 05:57:33;;;;;;;111.60;58.40;;;;;;;2.80;100.00;100310.25;5009156;28;20111;-81
2022/01/09 06:00:00;;;;;;;110.25;62.90;;;;;;;2.77;100.00;100311.38;5004320;28;20053;-82
2022/01/09 06:02:27;;;;;;;110.35;60.65;;;;;;;2.81;100.00;100311.88;5004885;28;20061;-81
2022/01/09 06:04:55;;;;;;;105.60;56.67;;;;;;;2.60;100.00;100302.69;5008041;28;20049;-81
2022/01/09 06:07:22;;;;;;;109.50;60.15;;;;;;;2.66;100.00;100311.72;4946066;28;20058;-82
2022/01/09 06:09:48;;;;;;;81.53;54.90;;;;;;;3.06;100.00;100320.56;4990424;28;20058;-81
2022/01/09 06:12:15;;;;;;;109.72;60.75;;;;;;;2.53;100.00;100320.06;5007078;28;20046;-82
2022/01/09 06:14:42;;;;;;;99.65;59.38;;;;;;;2.63;100.00;100330.41;5005276;28;20057;-81
2022/01/09 06:17:09;;;;;;;88.03;55.72;;;;;;;2.54;100.00;100324.31;5003526;28;20081;-83
2022/01/09 06:19:36;;;;;;;103.18;57.28;;;;;;;2.51;100.00;100329.88;5003673;28;20058;-83
2022/01/09 06:22:04;;;;;;;91.20;55.97;;;;;;;2.72;100.00;100322.38;5009459;28;20057;-81
2022/01/09 06:24:31;;;;;;;96.25;51.95;;;;;;;2.76;100.00;100317.63;5013713;28;20267;-84
2022/01/09 06:26:58;;;;;;;94.65;53.83;;;;;;;2.70;100.00;100323.53;5004158;28;20367;-82
2022/01/09 06:29:25;;;;;;;95.47;53.13;;;;;;;2.66;100.00;100311.72;5009395;28;20155;-82
2022/01/09 06:31:52;;;;;;;104.03;56.97;;;;;;;2.59;100.00;100321.22;5010615;28;20046;-82
2022/01/09 06:34:19;;;;;;;99.75;56.88;;;;;;;2.67;100.00;100316.81;5014728;28;20123;-81
2022/01/09 06:36:46;;;;;;;87.63;53.15;;;;;;;3.21;100.00;100327.56;5008352;28;20053;-82
2022/01/09 06:39:14;;;;;;;88.88;55.28;;;;;;;2.97;100.00;100330.25;5006516;28;20104;-82
2022/01/09 06:41:41;;;;;;;81.60;52.20;;;;;;;3.43;100.00;100327.84;5009679;28;20041;-81
2022/01/09 06:44:08;;;;;;;91.55;55.45;;;;;;;2.98;100.00;100327.44;5004518;28;20103;-82
2022/01/09 06:46:35;;;;;;;80.35;53.15;;;;;;;2.74;100.00;100333.50;5003566;28;20046;-82
2022/01/09 06:49:02;;;;;;;76.55;50.05;;;;;;;3.12;100.00;100331.19;5008276;28;20557;-82
2022/01/09 06:51:29;;;;;;;80.82;50.60;;;;;;;2.92;100.00;100324.66;5004849;28;20413;-82
2022/01/09 06:53:56;;;;;;;80.88;54.22;;;;;;;2.92;100.00;100328.09;5008471;28;20080;-82
2022/01/09 06:56:24;;;;;;;88.40;53.10;;;;;;;2.96;100.00;100325.94;5009513;28;20520;-81
2022/01/09 06:58:51;;;;;;;80.15;52.13;;;;;;;2.96;100.00;100329.41;5008557;28;20474;-81
2022/01/09 07:01:17;;;;;;;82.47;56.10;;;;;;;2.90;100.00;100316.94;5008122;28;20131;-85
2022/01/09 07:03:44;;;;;;;94.65;61.05;;;;;;;2.80;100.00;100328.59;5009213;28;20046;-83
2022/01/09 07:06:11;;;;;;;91.18;63.28;;;;;;;2.94;100.00;100328.75;5003555;28;20462;-82
2022/01/09 07:08:39;;;;;;;79.88;56.35;;;;;;;3.74;100.00;100320.00;5006433;28;20478;-83
2022/01/09 07:11:06;;;;;;;106.38;72.13;;;;;;;3.27;100.00;100314.75;5010135;28;20121;-82
2022/01/09 07:13:35;;;;;;;80.80;57.72;;;;;;;3.27;100.00;100320.84;5011313;28;20074;-82
2022/01/09 07:16:01;;;;;;;86.63;59.17;;;;;;;3.26;100.00;100323.63;5011892;28;20128;-81
2022/01/09 07:18:28;;;;;;;77.30;57.22;;;;;;;3.29;100.00;100312.78;5012475;28;20050;-82
2022/01/09 07:20:55;;;;;;;90.60;61.80;;;;;;;3.36;100.00;100319.81;5007041;28;20488;-82
2022/01/09 07:23:22;;;;;;;75.18;58.67;;;;;;;3.31;100.00;100316.06;5012881;28;20481;-81
2022/01/09 07:25:49;;;;;;;73.05;55.67;;;;;;;3.31;100.00;100316.88;5010980;28;20108;-81
2022/01/09 07:28:16;;;;;;;80.85;59.60;;;;;;;3.29;100.00;100320.66;5008626;28;20379;-82
2022/01/09 07:30:44;;;;;;;77.93;59.13;;;;;;;3.39;100.00;100309.00;5011999;28;20139;-81
2022/01/09 07:33:11;;;;;;;80.22;55.20;;;;;;;3.46;100.00;100310.94;5013780;28;20108;-83
2022/01/09 07:35:38;;;;;;;98.03;68.60;;;;;;;3.42;100.00;100306.03;5006756;28;20057;-83
2022/01/09 07:38:05;;;;;;;75.18;61.35;;;;;;;3.45;100.00;100302.25;5012510;28;20453;-82
2022/01/09 07:40:32;;;;;;;77.18;59.95;;;;;;;3.53;100.00;100304.00;5008769;28;20119;-81
2022/01/09 07:42:58;;;;;;;77.55;66.35;;;;;;;3.52;100.00;100297.94;5013938;28;20053;-81
2022/01/09 07:45:27;;;;;;;89.40;74.80;;;;;;;3.68;100.00;100283.91;5010307;28;20046;-82
2022/01/09 07:48:00;;;;;;;133.63;85.75;;;;;;;3.62;100.00;100290.66;5011280;28;20069;-81
2022/01/09 07:50:28;;;;;;;63.22;56.65;;;;;;;3.57;100.00;100287.75;5008526;28;20053;-82
2022/01/09 07:52:55;;;;;;;67.30;55.17;;;;;;;3.79;100.00;100280.09;5012336;28;20052;-82
2022/01/09 07:55:22;;;;;;;55.95;49.95;;;;;;;3.74;100.00;100283.22;5010066;28;20111;-82
2022/01/09 07:57:49;;;;;;;65.35;51.47;;;;;;;3.69;100.00;100280.28;5013750;28;20046;-81
2022/01/09 08:00:18;;;;;;;57.05;50.05;;;;;;;3.88;100.00;100266.75;5011941;28;20453;-82
2022/01/09 08:02:45;;;;;;;63.47;55.63;;;;;;;3.83;100.00;100268.25;5009242;28;20045;-81
2022/01/09 08:05:15;;;;;;;56.22;49.95;;;;;;;3.74;100.00;100267.47;5004212;28;20096;-82
2022/01/09 08:07:42;;;;;;;58.45;51.03;;;;;;;3.81;100.00;100265.81;5012559;28;20116;-82
2022/01/09 08:10:10;;;;;;;71.63;62.80;;;;;;;3.92;100.00;100264.59;5009985;28;20097;-83
2022/01/09 08:12:37;;;;;;;64.40;56.67;;;;;;;3.87;100.00;100262.50;5011751;28;20054;-82
2022/01/09 08:15:05;;;;;;;62.30;55.50;;;;;;;4.05;100.00;100249.03;5012100;28;20419;-83
2022/01/09 08:17:32;;;;;;;72.28;64.40;;;;;;;4.01;100.00;100247.78;5013084;28;20141;-82
2022/01/09 08:19:59;;;;;;;74.28;64.18;;;;;;;4.12;100.00;100247.38;5004369;28;20042;-81
2022/01/09 08:22:29;;;;;;;92.72;74.45;;;;;;;4.65;100.00;100244.00;5012489;28;20364;-82
2022/01/09 08:24:56;;;;;;;74.97;67.03;;;;;;;4.28;100.00;100248.25;5010889;28;20135;-81
2022/01/09 08:27:23;;;;;;;63.90;56.85;;;;;;;4.20;100.00;100253.56;5009333;28;20487;-79
2022/01/09 08:29:50;;;;;;;117.90;95.53;;;;;;;3.87;100.00;100259.03;5011784;28;20107;-82
2022/01/09 08:32:17;;;;;;;74.32;66.47;;;;;;;3.83;100.00;100263.81;5007728;28;20572;-79
2022/01/09 08:34:45;;;;;;;64.47;57.38;;;;;;;3.74;100.00;100266.66;5000839;28;20113;-80
2022/01/09 08:37:12;;;;;;;65.03;56.65;;;;;;;3.86;100.00;100257.41;5000782;28;20486;-80
2022/01/09 08:39:40;;;;;;;66.57;56.00;;;;;;;3.90;100.00;100250.78;5005711;28;20058;-82
2022/01/09 08:42:08;;;;;;;63.58;56.20;;;;;;;3.88;100.00;100258.84;5005287;28;20062;-81
2022/01/09 08:44:35;;;;;;;62.25;54.53;;;;;;;3.79;100.00;100261.72;5003573;28;20043;-79
2022/01/09 08:47:02;;;;;;;73.38;60.10;;;;;;;3.98;100.00;100261.25;5004784;28;20104;-82
2022/01/09 08:49:28;;;;;;;70.75;63.47;;;;;;;4.04;100.00;100257.94;5002813;28;20113;-79
2022/01/09 08:51:56;;;;;;;69.65;62.45;;;;;;;4.04;100.00;100255.31;5001794;28;20114;-82
2022/01/09 08:54:22;;;;;;;62.00;55.42;;;;;;;4.04;100.00;100249.25;5007357;28;20128;-82
2022/01/09 08:56:50;;;;;;;71.30;63.78;;;;;;;3.83;100.00;100247.22;5005139;28;20580;-83
2022/01/09 08:59:17;;;;;;;86.25;77.10;;;;;;;3.95;100.00;100248.47;5004129;28;20054;-82
2022/01/09 09:01:45;;;;;;;76.05;68.57;;;;;;;4.04;100.00;100251.88;5005653;28;20050;-79
2022/01/09 09:04:12;;;;;;;67.80;60.40;;;;;;;3.81;100.00;100254.44;5004550;28;20124;-82
2022/01/09 09:06:39;;;;;;;96.43;86.75;;;;;;;4.00;100.00;100263.72;5001173;28;20058;-80
2022/01/09 09:09:06;;;;;;;69.53;62.58;;;;;;;3.60;100.00;100257.69;5005167;28;20108;-82
2022/01/09 09:11:33;;;;;;;76.57;62.92;;;;;;;3.56;100.00;100251.16;5007762;28;20046;-79
2022/01/09 09:14:02;;;;;;;76.63;59.28;;;;;;;3.67;100.00;100250.78;5003319;28;20107;-82
2022/01/09 09:16:29;;;;;;;92.20;72.93;;;;;;;3.61;100.00;100248.84;5010189;28;20042;-80
2022/01/09 09:18:56;;;;;;;81.38;68.57;;;;;;;3.43;100.00;100249.06;5006244;28;20053;-79
2022/01/09 09:21:23;;;;;;;85.68;65.47;;;;;;;3.58;100.00;100239.47;5009240;28;20128;-82
2022/01/09 09:23:50;;;;;;;72.57;55.17;;;;;;;3.62;100.00;100234.69;5004784;28;20097;-80
2022/01/09 09:26:17;;;;;;;64.82;54.70;;;;;;;3.50;100.00;100229.00;5006511;28;20123;-83
2022/01/09 09:28:44;;;;;;;67.80;58.45;;;;;;;3.46;100.00;100234.78;5006134;28;20050;-83
2022/01/09 09:31:12;;;;;;;76.63;65.90;;;;;;;3.88;100.00;100231.78;5005535;28;20116;-80
2022/01/09 09:33:39;;;;;;;68.05;54.35;;;;;;;3.53;100.00;100218.16;5009386;28;20422;-80
2022/01/09 09:36:05;;;;;;;77.85;59.85;;;;;;;3.27;100.00;100218.47;5009309;28;20050;-83
2022/01/09 09:38:32;;;;;;;72.50;64.80;;;;;;;3.43;100.00;100209.69;5006080;28;20168;-82
2022/01/09 09:40:59;;;;;;;62.70;55.88;;;;;;;3.59;100.00;100212.22;5006510;28;20058;-82
2022/01/09 09:43:27;;;;;;;75.22;65.30;;;;;;;3.50;100.00;100202.75;5004884;28;20109;-80
2022/01/09 09:45:53;;;;;;;71.10;63.42;;;;;;;3.52;100.00;100197.34;5003851;28;20050;-83
2022/01/09 09:48:23;;;;;;;76.53;68.32;;;;;;;3.48;100.00;100199.50;5005026;28;20108;-81
2022/01/09 09:50:49;;;;;;;77.50;69.60;;;;;;;3.55;100.00;100195.19;5011896;28;20104;-84
2022/01/09 09:53:16;;;;;;;84.55;77.00;;;;;;;3.58;100.00;100199.28;5002418;28;20399;-80
2022/01/09 09:55:45;;;;;;;87.05;78.72;;;;;;;3.59;100.00;100199.09;5003821;28;20458;-81
2022/01/09 09:58:11;;;;;;;80.80;72.88;;;;;;;3.52;100.00;100190.28;5005270;28;20092;-82
2022/01/09 10:00:39;;;;;;;68.75;61.50;;;;;;;3.56;100.00;100188.94;5003558;28;20053;-83
2022/01/09 10:03:07;;;;;;;64.03;57.65;;;;;;;3.90;100.00;100187.72;5001962;28;20081;-79
2022/01/09 10:05:37;;;;;;;70.03;62.78;;;;;;;3.80;100.00;100190.59;5011781;28;20065;-82
2022/01/09 10:08:09;;;;;;;78.18;70.57;;;;;;;3.68;100.00;100192.81;5003408;28;20058;-79
2022/01/09 10:10:38;;;;;;;82.05;74.03;;;;;;;3.83;100.00;100189.44;5005479;28;20058;-80
2022/01/09 10:13:07;;;;;;;78.80;71.20;;;;;;;3.77;100.00;100180.44;5002638;28;20054;-82
2022/01/09 10:15:45;;;;;;;79.63;72.10;;;;;;;3.67;100.00;100183.28;5002128;28;20050;-81
2022/01/09 10:18:12;;;;;;;73.10;65.85;;;;;;;3.70;100.00;100174.25;5001843;28;20104;-83
2022/01/09 10:20:41;;;;;;;81.32;73.32;;;;;;;3.81;100.00;100173.00;5012451;28;20046;-81
2022/01/09 10:23:10;;;;;;;66.60;59.20;;;;;;;4.07;100.00;100168.22;5004539;28;20052;-80
2022/01/09 10:25:38;;;;;;;62.72;55.95;;;;;;;3.98;100.00;100174.53;5004557;28;20376;-82
2022/01/09 10:28:08;;;;;;;57.95;48.38;;;;;;;4.18;100.00;100176.69;5004949;28;20494;-80
2022/01/09 10:30:38;;;;;;;57.75;51.45;;;;;;;4.05;100.00;100170.19;5002181;28;20409;-80
2022/01/09 10:33:08;;;;;;;61.25;55.03;;;;;;;3.94;100.00;100169.81;5005978;28;20537;-82
2022/01/09 10:35:35;;;;;;;79.88;72.47;;;;;;;4.03;100.00;100172.22;4996297;28;20488;-82
2022/01/09 10:38:11;;;;;;;103.47;85.47;;;;;;;4.27;100.00;100168.56;5003429;28;20054;-83
2022/01/09 10:40:39;;;;;;;66.65;59.80;;;;;;;4.79;100.00;100165.06;5007366;28;20044;-79
2022/01/09 10:43:08;;;;;;;122.53;93.95;;;;;;;4.26;100.00;100171.34;5008476;28;20046;-81
2022/01/09 10:45:40;;;;;;;73.90;66.80;;;;;;;4.06;100.00;100171.84;5007294;28;20054;-81
2022/01/09 10:48:09;;;;;;;62.72;57.30;;;;;;;4.38;100.00;100169.94;5010902;28;20054;-80
2022/01/09 10:50:39;;;;;;;60.97;56.15;;;;;;;4.11;100.00;100166.91;5011787;28;20054;-81
2022/01/09 10:53:25;;;;;;;54.83;50.53;;;;;;;3.86;100.00;100165.44;5007238;28;20046;-81
2022/01/09 10:56:09;;;;;;;62.80;57.72;;;;;;;4.06;100.00;100165.78;5006939;28;20050;-81
2022/01/09 10:58:38;;;;;;;60.83;55.85;;;;;;;4.31;100.00;100180.34;5007846;28;20054;-80
2022/01/09 11:01:20;;;;;;;55.35;50.80;;;;;;;4.12;100.00;100180.84;5006374;28;20062;-80
2022/01/09 11:03:49;;;;;;;60.10;55.30;;;;;;;4.18;100.00;100172.25;5006834;28;20050;-80
2022/01/09 11:06:17;;;;;;;56.15;51.90;;;;;;;4.12;100.00;100171.16;5006027;28;20409;-78
2022/01/09 11:08:46;;;;;;;60.78;56.08;;;;;;;4.07;100.00;100172.66;5007543;28;20528;-79